Toco, Chile
Current Conditions -  °F | °C
As of 9:00 AM on Thursday 18 Dec 2014 (Local Time) from SCCF Reporting Station
Clear Clear  
Wind Chill: 61°   Ceiling: Unl
Heat Index: 61°   Visibility: 6mi
Dew Point: 25°   Wind: 13mph
Humidity: 25%   Direction: 80°E
Pressure: 30.3"   Gusts: NA
Location:  22.07°S, 69.59°W
Report Text: SCCF 181300Z 08011KT CAVOK 16/M04 Q1026
Loading
Personal Weather Stations






























Interactive Weather Map New forecast layout! Learn more

10-Day Weather Forecast

Advertisements
Track Severe Weather on mobile